sensor_id;sensor_type;location;lat;lon;timestamp;P1;durP1;ratioP1;P2;durP2;ratioP2
42866;SDS011;39461;40.948;73.006;2023-04-03T00:01:37;12.63;;;5.80;;
42866;SDS011;39461;40.948;73.006;2023-04-03T00:04:10;10.48;;;5.70;;
42866;SDS011;39461;40.948;73.006;2023-04-03T00:06:44;13.02;;;5.97;;
42866;SDS011;39461;40.948;73.006;2023-04-03T00:09:17;11.75;;;6.18;;
42866;SDS011;39461;40.948;73.006;2023-04-03T00:11:52;17.60;;;7.82;;
42866;SDS011;39461;40.948;73.006;2023-04-03T00:14:26;11.82;;;6.35;;
42866;SDS011;39461;40.948;73.006;2023-04-03T00:16:59;10.23;;;5.80;;
42866;SDS011;39461;40.948;73.006;2023-04-03T00:19:33;14.45;;;7.10;;
42866;SDS011;39461;40.948;73.006;2023-04-03T00:22:13;9.13;;;6.40;;
42866;SDS011;39461;40.948;73.006;2023-04-03T00:24:46;15.00;;;6.20;;
42866;SDS011;39461;40.948;73.006;2023-04-03T00:27:19;14.80;;;5.75;;
42866;SDS011;39461;40.948;73.006;2023-04-03T00:29:52;12.32;;;5.53;;
42866;SDS011;39461;40.948;73.006;2023-04-03T00:32:26;10.98;;;5.55;;
42866;SDS011;39461;40.948;73.006;2023-04-03T00:34:55;11.18;;;5.53;;
42866;SDS011;39461;40.948;73.006;2023-04-03T00:37:28;19.02;;;7.78;;
42866;SDS011;39461;40.948;73.006;2023-04-03T00:40:03;21.20;;;7.38;;
42866;SDS011;39461;40.948;73.006;2023-04-03T00:42:37;10.73;;;5.10;;
42866;SDS011;39461;40.948;73.006;2023-04-03T00:47:44;11.88;;;5.18;;
42866;SDS011;39461;40.948;73.006;2023-04-03T00:50:19;9.05;;;3.88;;
42866;SDS011;39461;40.948;73.006;2023-04-03T00:52:52;7.57;;;3.53;;
42866;SDS011;39461;40.948;73.006;2023-04-03T00:55:28;9.88;;;4.78;;
42866;SDS011;39461;40.948;73.006;2023-04-03T00:58:02;8.95;;;5.32;;
42866;SDS011;39461;40.948;73.006;2023-04-03T01:00:36;12.35;;;4.35;;
42866;SDS011;39461;40.948;73.006;2023-04-03T01:03:17;13.80;;;4.82;;
42866;SDS011;39461;40.948;73.006;2023-04-03T01:05:52;36.90;;;8.20;;
42866;SDS011;39461;40.948;73.006;2023-04-03T01:08:27;16.80;;;6.38;;
42866;SDS011;39461;40.948;73.006;2023-04-03T01:11:03;13.65;;;5.45;;
42866;SDS011;39461;40.948;73.006;2023-04-03T01:13:38;7.43;;;4.25;;
42866;SDS011;39461;40.948;73.006;2023-04-03T01:19:14;16.83;;;4.75;;
42866;SDS011;39461;40.948;73.006;2023-04-03T01:24:51;12.18;;;4.97;;
42866;SDS011;39461;40.948;73.006;2023-04-03T01:27:27;11.20;;;4.63;;
42866;SDS011;39461;40.948;73.006;2023-04-03T01:33:00;7.88;;;4.90;;
42866;SDS011;39461;40.948;73.006;2023-04-03T01:35:35;11.30;;;5.65;;
42866;SDS011;39461;40.948;73.006;2023-04-03T01:38:10;11.95;;;5.65;;
42866;SDS011;39461;40.948;73.006;2023-04-03T01:40:46;13.52;;;5.30;;
42866;SDS011;39461;40.948;73.006;2023-04-03T01:43:21;22.15;;;5.53;;
42866;SDS011;39461;40.948;73.006;2023-04-03T01:45:56;19.05;;;5.05;;
42866;SDS011;39461;40.948;73.006;2023-04-03T01:48:31;17.08;;;5.72;;
42866;SDS011;39461;40.948;73.006;2023-04-03T01:51:07;16.77;;;5.07;;
42866;SDS011;39461;40.948;73.006;2023-04-03T01:53:42;19.27;;;5.03;;
42866;SDS011;39461;40.948;73.006;2023-04-03T01:56:17;18.02;;;5.32;;
42866;SDS011;39461;40.948;73.006;2023-04-03T01:58:53;24.98;;;6.13;;
42866;SDS011;39461;40.948;73.006;2023-04-03T02:01:33;25.98;;;7.13;;
42866;SDS011;39461;40.948;73.006;2023-04-03T02:04:12;18.42;;;6.82;;
42866;SDS011;39461;40.948;73.006;2023-04-03T02:06:46;35.70;;;8.55;;
42866;SDS011;39461;40.948;73.006;2023-04-03T02:09:19;25.48;;;9.15;;
42866;SDS011;39461;40.948;73.006;2023-04-03T02:11:52;24.30;;;8.75;;
42866;SDS011;39461;40.948;73.006;2023-04-03T02:14:25;30.27;;;9.70;;
42866;SDS011;39461;40.948;73.006;2023-04-03T02:17:00;30.75;;;11.13;;
42866;SDS011;39461;40.948;73.006;2023-04-03T02:19:36;33.88;;;9.52;;
42866;SDS011;39461;40.948;73.006;2023-04-03T02:22:09;27.98;;;8.35;;
42866;SDS011;39461;40.948;73.006;2023-04-03T02:24:43;36.58;;;8.77;;
42866;SDS011;39461;40.948;73.006;2023-04-03T02:27:16;23.40;;;7.50;;
42866;SDS011;39461;40.948;73.006;2023-04-03T02:29:49;20.45;;;7.35;;
42866;SDS011;39461;40.948;73.006;2023-04-03T02:32:24;19.98;;;5.78;;
42866;SDS011;39461;40.948;73.006;2023-04-03T02:34:51;23.15;;;6.88;;
42866;SDS011;39461;40.948;73.006;2023-04-03T02:37:24;24.95;;;8.60;;
42866;SDS011;39461;40.948;73.006;2023-04-03T02:39:59;21.30;;;7.50;;
42866;SDS011;39461;40.948;73.006;2023-04-03T02:42:33;23.23;;;5.85;;
42866;SDS011;39461;40.948;73.006;2023-04-03T02:45:06;15.90;;;4.40;;
42866;SDS011;39461;40.948;73.006;2023-04-03T02:47:39;9.52;;;3.75;;
42866;SDS011;39461;40.948;73.006;2023-04-03T02:50:19;11.60;;;4.60;;
42866;SDS011;39461;40.948;73.006;2023-04-03T02:52:54;17.58;;;5.28;;
42866;SDS011;39461;40.948;73.006;2023-04-03T02:55:29;15.45;;;6.55;;
42866;SDS011;39461;40.948;73.006;2023-04-03T02:58:04;15.00;;;5.45;;
42866;SDS011;39461;40.948;73.006;2023-04-03T03:00:39;18.23;;;6.15;;
42866;SDS011;39461;40.948;73.006;2023-04-03T03:03:14;12.15;;;6.18;;
42866;SDS011;39461;40.948;73.006;2023-04-03T03:05:48;19.30;;;7.03;;
42866;SDS011;39461;40.948;73.006;2023-04-03T03:08:25;19.17;;;6.85;;
42866;SDS011;39461;40.948;73.006;2023-04-03T03:10:58;19.73;;;7.20;;
42866;SDS011;39461;40.948;73.006;2023-04-03T03:13:34;17.92;;;7.38;;
42866;SDS011;39461;40.948;73.006;2023-04-03T03:16:07;21.30;;;7.88;;
42866;SDS011;39461;40.948;73.006;2023-04-03T03:18:41;49.97;;;12.80;;
42866;SDS011;39461;40.948;73.006;2023-04-03T03:21:14;31.08;;;9.45;;
42866;SDS011;39461;40.948;73.006;2023-04-03T03:23:47;21.23;;;9.70;;
42866;SDS011;39461;40.948;73.006;2023-04-03T03:26:20;25.70;;;8.38;;
42866;SDS011;39461;40.948;73.006;2023-04-03T03:28:55;21.85;;;7.57;;
42866;SDS011;39461;40.948;73.006;2023-04-03T03:31:31;24.80;;;8.07;;
42866;SDS011;39461;40.948;73.006;2023-04-03T03:34:04;20.30;;;7.25;;
42866;SDS011;39461;40.948;73.006;2023-04-03T03:36:39;18.25;;;7.55;;
42866;SDS011;39461;40.948;73.006;2023-04-03T03:39:13;18.27;;;6.72;;
42866;SDS011;39461;40.948;73.006;2023-04-03T03:41:46;20.50;;;6.60;;
42866;SDS011;39461;40.948;73.006;2023-04-03T03:44:21;18.50;;;6.00;;
42866;SDS011;39461;40.948;73.006;2023-04-03T03:46:55;24.50;;;9.48;;
42866;SDS011;39461;40.948;73.006;2023-04-03T03:49:30;25.85;;;9.43;;
42866;SDS011;39461;40.948;73.006;2023-04-03T03:52:03;27.33;;;8.65;;
42866;SDS011;39461;40.948;73.006;2023-04-03T03:54:37;38.03;;;10.50;;
42866;SDS011;39461;40.948;73.006;2023-04-03T03:57:10;23.15;;;8.80;;
42866;SDS011;39461;40.948;73.006;2023-04-03T03:59:44;24.42;;;8.55;;
42866;SDS011;39461;40.948;73.006;2023-04-03T04:02:18;26.08;;;8.32;;
42866;SDS011;39461;40.948;73.006;2023-04-03T04:04:51;28.70;;;9.93;;
42866;SDS011;39461;40.948;73.006;2023-04-03T04:07:31;21.33;;;8.82;;
42866;SDS011;39461;40.948;73.006;2023-04-03T04:10:06;29.15;;;9.00;;
42866;SDS011;39461;40.948;73.006;2023-04-03T04:12:39;18.52;;;8.00;;
42866;SDS011;39461;40.948;73.006;2023-04-03T04:15:13;24.23;;;8.95;;
42866;SDS011;39461;40.948;73.006;2023-04-03T04:17:47;20.48;;;8.75;;
42866;SDS011;39461;40.948;73.006;2023-04-03T04:20:20;26.48;;;10.07;;
42866;SDS011;39461;40.948;73.006;2023-04-03T04:22:53;17.92;;;8.82;;
42866;SDS011;39461;40.948;73.006;2023-04-03T04:25:26;34.80;;;10.93;;
42866;SDS011;39461;40.948;73.006;2023-04-03T04:27:59;21.75;;;9.32;;
42866;SDS011;39461;40.948;73.006;2023-04-03T04:30:34;32.25;;;10.40;;
42866;SDS011;39461;40.948;73.006;2023-04-03T04:33:01;22.38;;;9.35;;
42866;SDS011;39461;40.948;73.006;2023-04-03T04:35:31;15.10;;;9.00;;
42866;SDS011;39461;40.948;73.006;2023-04-03T04:38:06;23.13;;;10.63;;
42866;SDS011;39461;40.948;73.006;2023-04-03T04:40:43;24.88;;;11.32;;
42866;SDS011;39461;40.948;73.006;2023-04-03T04:43:18;28.52;;;11.90;;
42866;SDS011;39461;40.948;73.006;2023-04-03T04:46:02;31.20;;;11.27;;
42866;SDS011;39461;40.948;73.006;2023-04-03T04:48:37;15.35;;;9.38;;
42866;SDS011;39461;40.948;73.006;2023-04-03T04:51:11;20.10;;;9.43;;
42866;SDS011;39461;40.948;73.006;2023-04-03T04:53:44;23.35;;;9.88;;
42866;SDS011;39461;40.948;73.006;2023-04-03T04:56:18;37.08;;;10.43;;
42866;SDS011;39461;40.948;73.006;2023-04-03T04:58:53;19.88;;;9.35;;
42866;SDS011;39461;40.948;73.006;2023-04-03T05:01:30;16.48;;;9.10;;
42866;SDS011;39461;40.948;73.006;2023-04-03T05:04:05;19.67;;;9.85;;
42866;SDS011;39461;40.948;73.006;2023-04-03T05:06:40;43.55;;;11.20;;
42866;SDS011;39461;40.948;73.006;2023-04-03T05:09:13;24.50;;;10.02;;
42866;SDS011;39461;40.948;73.006;2023-04-03T05:11:49;19.98;;;8.30;;
42866;SDS011;39461;40.948;73.006;2023-04-03T05:14:24;37.28;;;10.18;;
42866;SDS011;39461;40.948;73.006;2023-04-03T05:16:59;17.75;;;8.45;;
42866;SDS011;39461;40.948;73.006;2023-04-03T05:19:34;16.90;;;8.30;;
42866;SDS011;39461;40.948;73.006;2023-04-03T05:22:09;19.80;;;8.98;;
42866;SDS011;39461;40.948;73.006;2023-04-03T05:24:44;22.75;;;9.35;;
42866;SDS011;39461;40.948;73.006;2023-04-03T05:27:20;25.02;;;9.75;;
42866;SDS011;39461;40.948;73.006;2023-04-03T05:30:02;30.85;;;11.23;;
42866;SDS011;39461;40.948;73.006;2023-04-03T05:32:36;19.52;;;10.70;;
42866;SDS011;39461;40.948;73.006;2023-04-03T05:35:11;22.27;;;9.48;;
42866;SDS011;39461;40.948;73.006;2023-04-03T05:37:46;20.25;;;10.27;;
42866;SDS011;39461;40.948;73.006;2023-04-03T05:40:21;19.63;;;9.07;;
42866;SDS011;39461;40.948;73.006;2023-04-03T05:42:54;26.73;;;10.13;;
42866;SDS011;39461;40.948;73.006;2023-04-03T05:45:28;45.35;;;10.32;;
42866;SDS011;39461;40.948;73.006;2023-04-03T05:48:01;17.88;;;8.23;;
42866;SDS011;39461;40.948;73.006;2023-04-03T05:53:35;19.67;;;10.25;;
42866;SDS011;39461;40.948;73.006;2023-04-03T05:56:08;16.25;;;9.77;;
42866;SDS011;39461;40.948;73.006;2023-04-03T05:58:44;34.45;;;10.63;;
42866;SDS011;39461;40.948;73.006;2023-04-03T06:01:19;42.75;;;10.15;;
42866;SDS011;39461;40.948;73.006;2023-04-03T06:03:54;22.90;;;8.85;;
42866;SDS011;39461;40.948;73.006;2023-04-03T06:09:29;33.97;;;9.30;;
42866;SDS011;39461;40.948;73.006;2023-04-03T06:12:02;104.00;;;13.13;;
42866;SDS011;39461;40.948;73.006;2023-04-03T06:14:35;26.23;;;10.10;;
42866;SDS011;39461;40.948;73.006;2023-04-03T06:17:09;18.42;;;7.97;;
42866;SDS011;39461;40.948;73.006;2023-04-03T06:19:44;36.30;;;9.90;;
42866;SDS011;39461;40.948;73.006;2023-04-03T06:22:19;21.65;;;8.80;;
42866;SDS011;39461;40.948;73.006;2023-04-03T06:24:54;20.80;;;9.70;;
42866;SDS011;39461;40.948;73.006;2023-04-03T06:27:27;23.20;;;9.02;;
42866;SDS011;39461;40.948;73.006;2023-04-03T06:30:10;14.43;;;7.55;;
42866;SDS011;39461;40.948;73.006;2023-04-03T06:32:45;22.08;;;9.35;;
42866;SDS011;39461;40.948;73.006;2023-04-03T06:35:15;20.77;;;8.27;;
42866;SDS011;39461;40.948;73.006;2023-04-03T06:37:48;31.15;;;9.80;;
42866;SDS011;39461;40.948;73.006;2023-04-03T06:40:22;26.67;;;9.27;;
42866;SDS011;39461;40.948;73.006;2023-04-03T06:42:55;24.02;;;8.70;;
42866;SDS011;39461;40.948;73.006;2023-04-03T06:45:29;25.60;;;8.02;;
42866;SDS011;39461;40.948;73.006;2023-04-03T06:48:04;25.55;;;8.85;;
42866;SDS011;39461;40.948;73.006;2023-04-03T06:50:37;22.67;;;7.95;;
42866;SDS011;39461;40.948;73.006;2023-04-03T06:53:13;26.35;;;7.90;;
42866;SDS011;39461;40.948;73.006;2023-04-03T06:55:46;17.45;;;6.75;;
42866;SDS011;39461;40.948;73.006;2023-04-03T06:58:20;22.15;;;7.97;;
42866;SDS011;39461;40.948;73.006;2023-04-03T07:00:55;29.00;;;8.80;;
42866;SDS011;39461;40.948;73.006;2023-04-03T07:06:27;25.63;;;7.72;;
42866;SDS011;39461;40.948;73.006;2023-04-03T07:09:01;27.45;;;7.82;;
42866;SDS011;39461;40.948;73.006;2023-04-03T07:11:36;21.80;;;6.75;;
42866;SDS011;39461;40.948;73.006;2023-04-03T07:14:11;27.48;;;7.63;;
42866;SDS011;39461;40.948;73.006;2023-04-03T07:16:46;21.15;;;7.10;;
42866;SDS011;39461;40.948;73.006;2023-04-03T07:19:21;18.13;;;6.57;;
42866;SDS011;39461;40.948;73.006;2023-04-03T07:22:01;16.33;;;7.38;;
42866;SDS011;39461;40.948;73.006;2023-04-03T07:24:36;25.45;;;8.27;;
42866;SDS011;39461;40.948;73.006;2023-04-03T07:27:12;20.80;;;8.13;;
42866;SDS011;39461;40.948;73.006;2023-04-03T07:29:45;33.20;;;8.18;;
42866;SDS011;39461;40.948;73.006;2023-04-03T07:32:20;37.50;;;8.75;;
42866;SDS011;39461;40.948;73.006;2023-04-03T07:34:53;33.50;;;7.97;;
42866;SDS011;39461;40.948;73.006;2023-04-03T07:40:28;24.15;;;7.00;;
42866;SDS011;39461;40.948;73.006;2023-04-03T07:43:03;22.77;;;7.93;;
42866;SDS011;39461;40.948;73.006;2023-04-03T07:45:37;26.60;;;8.10;;
42866;SDS011;39461;40.948;73.006;2023-04-03T07:48:11;31.42;;;9.05;;
42866;SDS011;39461;40.948;73.006;2023-04-03T07:50:46;21.13;;;8.02;;
42866;SDS011;39461;40.948;73.006;2023-04-03T07:53:21;19.35;;;6.82;;
42866;SDS011;39461;40.948;73.006;2023-04-03T07:55:56;37.20;;;9.32;;
42866;SDS011;39461;40.948;73.006;2023-04-03T07:58:31;25.35;;;7.97;;
42866;SDS011;39461;40.948;73.006;2023-04-03T08:01:04;32.53;;;7.45;;
42866;SDS011;39461;40.948;73.006;2023-04-03T08:03:38;28.77;;;7.57;;
42866;SDS011;39461;40.948;73.006;2023-04-03T08:06:13;54.45;;;10.20;;
42866;SDS011;39461;40.948;73.006;2023-04-03T08:08:47;51.03;;;8.85;;
42866;SDS011;39461;40.948;73.006;2023-04-03T08:11:22;26.42;;;7.50;;
42866;SDS011;39461;40.948;73.006;2023-04-03T08:13:58;27.73;;;7.97;;
42866;SDS011;39461;40.948;73.006;2023-04-03T08:16:31;23.40;;;7.97;;
42866;SDS011;39461;40.948;73.006;2023-04-03T08:19:04;29.60;;;8.40;;
42866;SDS011;39461;40.948;73.006;2023-04-03T08:21:41;23.48;;;6.78;;
42866;SDS011;39461;40.948;73.006;2023-04-03T08:24:14;25.45;;;7.15;;
42866;SDS011;39461;40.948;73.006;2023-04-03T08:26:49;25.27;;;6.85;;
42866;SDS011;39461;40.948;73.006;2023-04-03T08:29:22;36.40;;;10.18;;
42866;SDS011;39461;40.948;73.006;2023-04-03T08:31:55;28.10;;;7.53;;
42866;SDS011;39461;40.948;73.006;2023-04-03T08:34:22;21.88;;;7.72;;
42866;SDS011;39461;40.948;73.006;2023-04-03T08:36:55;28.08;;;7.35;;
42866;SDS011;39461;40.948;73.006;2023-04-03T08:39:35;25.08;;;6.63;;
42866;SDS011;39461;40.948;73.006;2023-04-03T08:47:55;23.83;;;6.45;;
42866;SDS011;39461;40.948;73.006;2023-04-03T08:50:36;24.80;;;7.07;;
42866;SDS011;39461;40.948;73.006;2023-04-03T08:53:15;19.25;;;7.05;;
42866;SDS011;39461;40.948;73.006;2023-04-03T08:55:49;29.45;;;6.40;;
42866;SDS011;39461;40.948;73.006;2023-04-03T09:01:26;30.50;;;6.40;;
42866;SDS011;39461;40.948;73.006;2023-04-03T09:04:05;21.42;;;6.10;;
42866;SDS011;39461;40.948;73.006;2023-04-03T09:06:52;20.05;;;5.50;;
42866;SDS011;39461;40.948;73.006;2023-04-03T09:12:17;16.95;;;6.03;;
42866;SDS011;39461;40.948;73.006;2023-04-03T09:15:05;17.55;;;6.28;;
42866;SDS011;39461;40.948;73.006;2023-04-03T09:17:41;14.85;;;6.05;;
42866;SDS011;39461;40.948;73.006;2023-04-03T09:20:36;27.95;;;7.25;;
42866;SDS011;39461;40.948;73.006;2023-04-03T09:25:48;23.58;;;3.10;;
42866;SDS011;39461;40.948;73.006;2023-04-03T09:28:22;48.80;;;4.82;;
42866;SDS011;39461;40.948;73.006;2023-04-03T09:30:56;231.00;;;13.73;;
42866;SDS011;39461;40.948;73.006;2023-04-03T09:33:31;57.92;;;5.05;;
42866;SDS011;39461;40.948;73.006;2023-04-03T09:36:05;21.90;;;3.10;;
42866;SDS011;39461;40.948;73.006;2023-04-03T09:38:38;80.22;;;5.53;;
42866;SDS011;39461;40.948;73.006;2023-04-03T09:41:16;29.13;;;3.67;;
42866;SDS011;39461;40.948;73.006;2023-04-03T09:43:52;27.67;;;2.80;;
42866;SDS011;39461;40.948;73.006;2023-04-03T09:46:31;26.98;;;3.30;;
42866;SDS011;39461;40.948;73.006;2023-04-03T09:49:08;27.80;;;3.22;;
42866;SDS011;39461;40.948;73.006;2023-04-03T09:51:46;50.22;;;3.67;;
42866;SDS011;39461;40.948;73.006;2023-04-03T09:54:26;136.05;;;9.40;;
42866;SDS011;39461;40.948;73.006;2023-04-03T09:57:01;35.88;;;3.72;;
42866;SDS011;39461;40.948;73.006;2023-04-03T09:59:47;69.57;;;5.22;;
42866;SDS011;39461;40.948;73.006;2023-04-03T10:02:33;43.65;;;5.07;;
42866;SDS011;39461;40.948;73.006;2023-04-03T10:05:41;16.98;;;1.67;;
42866;SDS011;39461;40.948;73.006;2023-04-03T10:08:14;40.05;;;3.05;;
42866;SDS011;39461;40.948;73.006;2023-04-03T10:11:08;27.92;;;2.30;;
42866;SDS011;39461;40.948;73.006;2023-04-03T10:13:52;27.98;;;3.17;;
42866;SDS011;39461;40.948;73.006;2023-04-03T10:16:35;58.85;;;4.30;;
42866;SDS011;39461;40.948;73.006;2023-04-03T10:38:19;16.50;;;2.60;;
42866;SDS011;39461;40.948;73.006;2023-04-03T10:49:10;7.90;;;2.50;;
42866;SDS011;39461;40.948;73.006;2023-04-03T10:51:48;6.05;;;2.40;;
42866;SDS011;39461;40.948;73.006;2023-04-03T10:54:40;19.77;;;4.47;;
42866;SDS011;39461;40.948;73.006;2023-04-03T10:57:16;18.27;;;6.35;;
42866;SDS011;39461;40.948;73.006;2023-04-03T10:59:53;35.58;;;7.38;;
42866;SDS011;39461;40.948;73.006;2023-04-03T11:02:51;46.38;;;7.70;;
42866;SDS011;39461;40.948;73.006;2023-04-03T11:14:32;23.15;;;6.03;;
42866;SDS011;39461;40.948;73.006;2023-04-03T11:25:08;23.17;;;5.45;;
42866;SDS011;39461;40.948;73.006;2023-04-03T11:35:44;17.42;;;5.32;;
42866;SDS011;39461;40.948;73.006;2023-04-03T11:38:23;26.15;;;5.85;;
42866;SDS011;39461;40.948;73.006;2023-04-03T11:40:58;29.67;;;6.88;;
42866;SDS011;39461;40.948;73.006;2023-04-03T11:43:32;15.80;;;5.90;;
42866;SDS011;39461;40.948;73.006;2023-04-03T11:46:06;15.52;;;5.28;;
42866;SDS011;39461;40.948;73.006;2023-04-03T11:48:41;35.00;;;7.68;;
42866;SDS011;39461;40.948;73.006;2023-04-03T11:53:48;27.38;;;8.38;;
42866;SDS011;39461;40.948;73.006;2023-04-03T12:01:55;33.50;;;7.72;;
42866;SDS011;39461;40.948;73.006;2023-04-03T12:04:29;45.05;;;8.32;;
42866;SDS011;39461;40.948;73.006;2023-04-03T12:07:14;34.92;;;8.48;;
42866;SDS011;39461;40.948;73.006;2023-04-03T12:09:57;41.25;;;9.25;;
42866;SDS011;39461;40.948;73.006;2023-04-03T12:12:31;22.02;;;8.70;;
42866;SDS011;39461;40.948;73.006;2023-04-03T12:17:51;31.00;;;8.73;;
42866;SDS011;39461;40.948;73.006;2023-04-03T12:23:27;31.58;;;10.57;;
42866;SDS011;39461;40.948;73.006;2023-04-03T12:28:38;31.77;;;9.77;;
42866;SDS011;39461;40.948;73.006;2023-04-03T12:31:11;34.80;;;11.43;;
42866;SDS011;39461;40.948;73.006;2023-04-03T12:36:23;41.22;;;10.75;;
42866;SDS011;39461;40.948;73.006;2023-04-03T12:39:06;33.63;;;9.45;;
42866;SDS011;39461;40.948;73.006;2023-04-03T12:44:26;32.60;;;8.65;;
42866;SDS011;39461;40.948;73.006;2023-04-03T12:47:10;28.50;;;9.10;;
42866;SDS011;39461;40.948;73.006;2023-04-03T12:49:47;31.48;;;9.85;;
42866;SDS011;39461;40.948;73.006;2023-04-03T12:52:56;26.42;;;9.52;;
42866;SDS011;39461;40.948;73.006;2023-04-03T12:55:21;18.35;;;8.73;;
42866;SDS011;39461;40.948;73.006;2023-04-03T12:57:54;19.08;;;8.80;;
42866;SDS011;39461;40.948;73.006;2023-04-03T13:00:32;31.95;;;12.18;;
42866;SDS011;39461;40.948;73.006;2023-04-03T13:03:06;29.85;;;10.57;;
42866;SDS011;39461;40.948;73.006;2023-04-03T13:05:47;33.65;;;10.23;;
42866;SDS011;39461;40.948;73.006;2023-04-03T13:08:22;30.10;;;9.88;;
42866;SDS011;39461;40.948;73.006;2023-04-03T13:11:00;25.83;;;10.80;;
42866;SDS011;39461;40.948;73.006;2023-04-03T13:13:45;31.60;;;10.20;;
42866;SDS011;39461;40.948;73.006;2023-04-03T13:16:26;25.50;;;10.45;;
42866;SDS011;39461;40.948;73.006;2023-04-03T13:19:06;24.98;;;9.75;;
42866;SDS011;39461;40.948;73.006;2023-04-03T13:21:39;36.63;;;11.23;;
42866;SDS011;39461;40.948;73.006;2023-04-03T13:24:12;28.77;;;10.60;;
42866;SDS011;39461;40.948;73.006;2023-04-03T13:26:45;22.63;;;10.27;;
42866;SDS011;39461;40.948;73.006;2023-04-03T13:29:26;23.20;;;9.50;;
42866;SDS011;39461;40.948;73.006;2023-04-03T13:32:00;29.80;;;9.85;;
42866;SDS011;39461;40.948;73.006;2023-04-03T13:34:43;21.50;;;9.68;;
42866;SDS011;39461;40.948;73.006;2023-04-03T13:37:24;29.98;;;11.65;;
42866;SDS011;39461;40.948;73.006;2023-04-03T13:40:01;32.03;;;11.80;;
42866;SDS011;39461;40.948;73.006;2023-04-03T13:42:36;30.98;;;11.88;;
42866;SDS011;39461;40.948;73.006;2023-04-03T13:47:44;21.65;;;10.93;;
42866;SDS011;39461;40.948;73.006;2023-04-03T13:50:20;31.30;;;11.10;;
42866;SDS011;39461;40.948;73.006;2023-04-03T13:53:02;20.58;;;11.40;;
42866;SDS011;39461;40.948;73.006;2023-04-03T13:55:36;23.15;;;11.07;;
42866;SDS011;39461;40.948;73.006;2023-04-03T14:00:49;21.90;;;12.73;;
42866;SDS011;39461;40.948;73.006;2023-04-03T14:05:59;25.45;;;10.55;;
42866;SDS011;39461;40.948;73.006;2023-04-03T14:08:32;17.33;;;10.82;;
42866;SDS011;39461;40.948;73.006;2023-04-03T14:11:12;24.98;;;11.10;;
42866;SDS011;39461;40.948;73.006;2023-04-03T14:13:46;18.73;;;9.27;;
42866;SDS011;39461;40.948;73.006;2023-04-03T14:16:17;20.00;;;10.55;;
42866;SDS011;39461;40.948;73.006;2023-04-03T14:18:53;16.90;;;10.10;;
42866;SDS011;39461;40.948;73.006;2023-04-03T14:21:26;23.45;;;10.57;;
42866;SDS011;39461;40.948;73.006;2023-04-03T14:24:00;24.15;;;10.95;;
42866;SDS011;39461;40.948;73.006;2023-04-03T14:26:33;22.33;;;10.93;;
42866;SDS011;39461;40.948;73.006;2023-04-03T14:29:11;22.10;;;10.75;;
42866;SDS011;39461;40.948;73.006;2023-04-03T14:31:47;15.88;;;10.60;;
42866;SDS011;39461;40.948;73.006;2023-04-03T14:34:14;26.15;;;11.43;;
42866;SDS011;39461;40.948;73.006;2023-04-03T14:36:47;20.60;;;9.90;;
42866;SDS011;39461;40.948;73.006;2023-04-03T14:39:21;20.98;;;11.25;;
42866;SDS011;39461;40.948;73.006;2023-04-03T14:41:54;17.20;;;10.40;;
42866;SDS011;39461;40.948;73.006;2023-04-03T14:44:28;24.42;;;12.02;;
42866;SDS011;39461;40.948;73.006;2023-04-03T14:47:02;27.45;;;11.98;;
42866;SDS011;39461;40.948;73.006;2023-04-03T14:49:35;18.45;;;11.07;;
42866;SDS011;39461;40.948;73.006;2023-04-03T14:52:22;17.88;;;10.75;;
42866;SDS011;39461;40.948;73.006;2023-04-03T14:54:55;21.83;;;11.68;;
42866;SDS011;39461;40.948;73.006;2023-04-03T14:57:30;18.15;;;11.05;;
42866;SDS011;39461;40.948;73.006;2023-04-03T15:00:07;24.98;;;11.68;;
42866;SDS011;39461;40.948;73.006;2023-04-03T15:02:45;23.70;;;12.90;;
42866;SDS011;39461;40.948;73.006;2023-04-03T15:05:23;19.02;;;12.40;;
42866;SDS011;39461;40.948;73.006;2023-04-03T15:07:57;23.75;;;12.90;;
42866;SDS011;39461;40.948;73.006;2023-04-03T15:10:32;27.55;;;13.48;;
42866;SDS011;39461;40.948;73.006;2023-04-03T15:13:05;21.70;;;13.63;;
42866;SDS011;39461;40.948;73.006;2023-04-03T15:15:39;32.00;;;13.73;;
42866;SDS011;39461;40.948;73.006;2023-04-03T15:18:21;29.85;;;13.02;;
42866;SDS011;39461;40.948;73.006;2023-04-03T15:20:55;30.55;;;13.98;;
42866;SDS011;39461;40.948;73.006;2023-04-03T15:23:28;27.92;;;13.65;;
42866;SDS011;39461;40.948;73.006;2023-04-03T15:26:04;22.13;;;13.13;;
42866;SDS011;39461;40.948;73.006;2023-04-03T15:28:39;25.52;;;14.82;;
42866;SDS011;39461;40.948;73.006;2023-04-03T15:31:12;18.95;;;12.82;;
42866;SDS011;39461;40.948;73.006;2023-04-03T15:33:46;31.00;;;13.88;;
42866;SDS011;39461;40.948;73.006;2023-04-03T15:36:19;28.25;;;15.90;;
42866;SDS011;39461;40.948;73.006;2023-04-03T15:38:54;31.42;;;15.23;;
42866;SDS011;39461;40.948;73.006;2023-04-03T15:41:27;26.67;;;14.60;;
42866;SDS011;39461;40.948;73.006;2023-04-03T15:44:01;32.40;;;16.20;;
42866;SDS011;39461;40.948;73.006;2023-04-03T15:46:34;31.73;;;15.80;;
42866;SDS011;39461;40.948;73.006;2023-04-03T15:49:08;32.08;;;14.85;;
42866;SDS011;39461;40.948;73.006;2023-04-03T15:51:43;37.80;;;15.45;;
42866;SDS011;39461;40.948;73.006;2023-04-03T15:54:18;35.50;;;18.52;;
42866;SDS011;39461;40.948;73.006;2023-04-03T15:56:54;67.78;;;31.42;;
42866;SDS011;39461;40.948;73.006;2023-04-03T15:59:27;55.55;;;31.90;;
42866;SDS011;39461;40.948;73.006;2023-04-03T16:02:04;56.38;;;35.60;;
42866;SDS011;39461;40.948;73.006;2023-04-03T16:04:39;60.70;;;36.80;;
42866;SDS011;39461;40.948;73.006;2023-04-03T16:07:12;64.63;;;37.75;;
42866;SDS011;39461;40.948;73.006;2023-04-03T16:09:46;67.50;;;37.00;;
42866;SDS011;39461;40.948;73.006;2023-04-03T16:12:19;78.65;;;37.05;;
42866;SDS011;39461;40.948;73.006;2023-04-03T16:14:53;59.90;;;34.50;;
42866;SDS011;39461;40.948;73.006;2023-04-03T16:17:27;77.78;;;35.38;;
42866;SDS011;39461;40.948;73.006;2023-04-03T16:20:00;80.40;;;37.25;;
42866;SDS011;39461;40.948;73.006;2023-04-03T16:22:35;69.63;;;37.20;;
42866;SDS011;39461;40.948;73.006;2023-04-03T16:25:09;104.30;;;36.05;;
42866;SDS011;39461;40.948;73.006;2023-04-03T16:27:42;88.55;;;31.67;;
42866;SDS011;39461;40.948;73.006;2023-04-03T16:30:20;77.60;;;28.95;;
42866;SDS011;39461;40.948;73.006;2023-04-03T16:32:54;67.60;;;27.30;;
42866;SDS011;39461;40.948;73.006;2023-04-03T16:35:26;75.70;;;27.13;;
42866;SDS011;39461;40.948;73.006;2023-04-03T16:38:02;70.60;;;24.33;;
42866;SDS011;39461;40.948;73.006;2023-04-03T16:40:37;68.25;;;21.80;;
42866;SDS011;39461;40.948;73.006;2023-04-03T16:43:13;72.07;;;18.55;;
42866;SDS011;39461;40.948;73.006;2023-04-03T16:45:48;65.85;;;17.88;;
42866;SDS011;39461;40.948;73.006;2023-04-03T16:48:23;62.05;;;17.10;;
42866;SDS011;39461;40.948;73.006;2023-04-03T16:50:56;60.90;;;16.15;;
42866;SDS011;39461;40.948;73.006;2023-04-03T16:53:36;58.47;;;15.32;;
42866;SDS011;39461;40.948;73.006;2023-04-03T16:56:11;45.13;;;13.85;;
42866;SDS011;39461;40.948;73.006;2023-04-03T16:58:46;65.00;;;13.95;;
42866;SDS011;39461;40.948;73.006;2023-04-03T17:01:22;75.22;;;14.77;;
42866;SDS011;39461;40.948;73.006;2023-04-03T17:03:55;73.00;;;14.90;;
42866;SDS011;39461;40.948;73.006;2023-04-03T17:06:31;56.47;;;14.30;;